メインページ
METAR-TAF:

METAR-TAF

空港 :

ダブリン, アイルランド

ダブリン空港

緯度: 53-26N, 経度: 006-15W, 海抜: 68m

現時点の気象観測

当レポートは24分前の20:30(UTC)に作成
西の風 11kt
気温 1°C
湿度 93%
気圧 1001 hPa
視程10km以上
高度2800ftの雲はほとんどない

METAR: EIDW 112030Z 28011KT 9999 FEW028 01/M00 Q1001 NOSIG

時間: 20:54 (20:54 UTC)

予報

当レポートは3時間54分前の17:00(UTC)に作成
予報は11日の 18時(UTC)から 12日の 18時(UTC)まで有効
西/北西の風 11kt
視程10km以上
高度1800ftの雲はほとんどない
高度3000ftの雲は散在している
12日の 04時(UTC)から 12日の 09時(UTC)まで一時的に
視程: 4000m
12日の 04時(UTC)から 12日の 06時(UTC)まで徐々に
西/南西の風 8kt
12日の 10時(UTC)から 12日の 13時(UTC)まで徐々に
南/南西の風 13kt
12日の 15時(UTC)から 12日の 18時(UTC)まで一時的に
高度1500ftの千切れ雲あり
小雨

TAF: EIDW 111700Z 1118/1218 29011KT 9999 FEW018 SCT030 TEMPO 1204/1209 4000 BR BECMG 1204/1206 24008KT BECMG 1210/1213 21013KT TEMPO 1215/1218 -RA BKN015

4,000以上の空港の気象観測と天気予報(METAR報とTAF報)

利用可能な観測所は地図上に黄色い丸と赤い丸で示す。

丸の上にカーソルを重ねると観測所名を参照できる。

次にクリックすると気象観測と天気予報を参照できる。

マップの切り替え:黒色「×」印の緑ボタンをクリックして拡大、「-」印の緑ボタンをクリックして縮小、緑色の三角印をクリックして隣りの地図に切り替え


METAR-TAF: